sensor_id;sensor_type;location;lat;lon;timestamp;pressure;altitude;pressure_sealevel;temperature;humidity
37778;BME280;23615;51.506;7.678;2023-06-04T00:02:10;100447.59;;;11.48;74.42
37778;BME280;23615;51.506;7.678;2023-06-04T00:04:36;100448.28;;;11.43;73.93
37778;BME280;23615;51.506;7.678;2023-06-04T00:07:01;100438.63;;;11.42;74.00
37778;BME280;23615;51.506;7.678;2023-06-04T00:09:26;100441.34;;;11.36;74.62
37778;BME280;23615;51.506;7.678;2023-06-04T00:11:51;100441.66;;;11.21;74.69
37778;BME280;23615;51.506;7.678;2023-06-04T00:14:17;100445.41;;;11.13;75.08
37778;BME280;23615;51.506;7.678;2023-06-04T00:16:42;100445.25;;;11.08;75.49
37778;BME280;23615;51.506;7.678;2023-06-04T00:19:08;100449.03;;;11.01;75.77
37778;BME280;23615;51.506;7.678;2023-06-04T00:21:33;100446.38;;;10.94;75.74
37778;BME280;23615;51.506;7.678;2023-06-04T00:24:00;100441.09;;;10.87;75.43
37778;BME280;23615;51.506;7.678;2023-06-04T00:26:25;100440.56;;;10.72;76.10
37778;BME280;23615;51.506;7.678;2023-06-04T00:28:50;100438.16;;;10.64;76.68
37778;BME280;23615;51.506;7.678;2023-06-04T00:31:16;100434.25;;;10.60;76.52
37778;BME280;23615;51.506;7.678;2023-06-04T00:33:41;100437.97;;;10.59;76.88
37778;BME280;23615;51.506;7.678;2023-06-04T00:36:07;100436.31;;;10.58;77.05
37778;BME280;23615;51.506;7.678;2023-06-04T00:38:32;100432.25;;;10.56;76.90
37778;BME280;23615;51.506;7.678;2023-06-04T00:40:58;100438.38;;;10.56;77.08
37778;BME280;23615;51.506;7.678;2023-06-04T00:43:23;100444.97;;;10.54;76.94
37778;BME280;23615;51.506;7.678;2023-06-04T00:45:53;100436.34;;;10.52;77.30
37778;BME280;23615;51.506;7.678;2023-06-04T00:48:19;100445.81;;;10.47;76.96
37778;BME280;23615;51.506;7.678;2023-06-04T00:50:44;100449.34;;;10.41;77.11
37778;BME280;23615;51.506;7.678;2023-06-04T00:53:10;100444.88;;;10.29;77.17
37778;BME280;23615;51.506;7.678;2023-06-04T00:55:36;100449.59;;;10.20;78.04
37778;BME280;23615;51.506;7.678;2023-06-04T00:58:01;100448.81;;;10.20;77.47
37778;BME280;23615;51.506;7.678;2023-06-04T01:00:28;100450.88;;;10.18;77.51
37778;BME280;23615;51.506;7.678;2023-06-04T01:02:53;100448.00;;;10.19;77.54
37778;BME280;23615;51.506;7.678;2023-06-04T01:05:36;100444.09;;;10.08;77.67
37778;BME280;23615;51.506;7.678;2023-06-04T01:08:03;100445.53;;;10.04;78.74
37778;BME280;23615;51.506;7.678;2023-06-04T01:10:29;100442.47;;;10.01;78.02
37778;BME280;23615;51.506;7.678;2023-06-04T01:12:54;100444.56;;;9.92;78.26
37778;BME280;23615;51.506;7.678;2023-06-04T01:15:20;100445.19;;;9.81;78.77
37778;BME280;23615;51.506;7.678;2023-06-04T01:17:48;100437.81;;;9.76;79.01
37778;BME280;23615;51.506;7.678;2023-06-04T01:20:39;100447.44;;;9.77;78.78
37778;BME280;23615;51.506;7.678;2023-06-04T01:25:40;100452.38;;;9.81;78.55
37778;BME280;23615;51.506;7.678;2023-06-04T01:28:11;100448.88;;;9.80;78.59
37778;BME280;23615;51.506;7.678;2023-06-04T01:30:38;100452.56;;;9.79;78.62
37778;BME280;23615;51.506;7.678;2023-06-04T01:33:09;100454.63;;;9.77;78.68
37778;BME280;23615;51.506;7.678;2023-06-04T01:35:35;100449.50;;;9.69;78.72
37778;BME280;23615;51.506;7.678;2023-06-04T01:38:01;100448.47;;;9.57;78.99
37778;BME280;23615;51.506;7.678;2023-06-04T01:40:26;100451.59;;;9.54;79.93
37778;BME280;23615;51.506;7.678;2023-06-04T01:42:52;100450.97;;;9.52;79.51
37778;BME280;23615;51.506;7.678;2023-06-04T01:45:18;100445.63;;;9.52;79.22
37778;BME280;23615;51.506;7.678;2023-06-04T01:47:43;100444.41;;;9.48;79.22
37778;BME280;23615;51.506;7.678;2023-06-04T01:50:09;100441.97;;;9.46;79.12
37778;BME280;23615;51.506;7.678;2023-06-04T01:52:37;100448.09;;;9.47;79.20
37778;BME280;23615;51.506;7.678;2023-06-04T01:55:07;100442.38;;;9.43;78.95
37778;BME280;23615;51.506;7.678;2023-06-04T01:57:34;100445.03;;;9.43;78.89
37778;BME280;23615;51.506;7.678;2023-06-04T02:00:00;100442.75;;;9.40;79.29
37778;BME280;23615;51.506;7.678;2023-06-04T02:02:26;100445.03;;;9.36;79.70
37778;BME280;23615;51.506;7.678;2023-06-04T02:04:51;100452.41;;;9.34;79.38
37778;BME280;23615;51.506;7.678;2023-06-04T02:07:19;100444.81;;;9.31;79.30
37778;BME280;23615;51.506;7.678;2023-06-04T02:09:47;100446.03;;;9.22;80.12
37778;BME280;23615;51.506;7.678;2023-06-04T02:12:13;100448.91;;;9.21;79.23
37778;BME280;23615;51.506;7.678;2023-06-04T02:14:38;100442.16;;;9.18;79.77
37778;BME280;23615;51.506;7.678;2023-06-04T02:17:05;100449.31;;;9.11;79.90
37778;BME280;23615;51.506;7.678;2023-06-04T02:19:35;100446.84;;;9.03;79.71
37778;BME280;23615;51.506;7.678;2023-06-04T02:22:02;100448.47;;;9.04;80.44
37778;BME280;23615;51.506;7.678;2023-06-04T02:24:27;100450.53;;;9.02;79.96
37778;BME280;23615;51.506;7.678;2023-06-04T02:26:52;100449.31;;;9.05;80.45
37778;BME280;23615;51.506;7.678;2023-06-04T02:29:17;100457.09;;;9.06;79.78
37778;BME280;23615;51.506;7.678;2023-06-04T02:31:43;100456.25;;;8.99;80.27
37778;BME280;23615;51.506;7.678;2023-06-04T02:34:08;100449.88;;;8.87;80.70
37778;BME280;23615;51.506;7.678;2023-06-04T02:36:34;100456.03;;;8.87;81.34
37778;BME280;23615;51.506;7.678;2023-06-04T02:38:59;100458.69;;;8.87;80.68
37778;BME280;23615;51.506;7.678;2023-06-04T02:41:26;100461.97;;;8.89;80.88
37778;BME280;23615;51.506;7.678;2023-06-04T02:43:51;100456.66;;;8.83;80.73
37778;BME280;23615;51.506;7.678;2023-06-04T02:46:16;100454.97;;;8.75;80.44
37778;BME280;23615;51.506;7.678;2023-06-04T02:48:41;100454.97;;;8.75;80.53
37778;BME280;23615;51.506;7.678;2023-06-04T02:51:07;100450.28;;;8.71;80.38
37778;BME280;23615;51.506;7.678;2023-06-04T02:53:35;100452.50;;;8.67;80.67
37778;BME280;23615;51.506;7.678;2023-06-04T02:56:01;100449.63;;;8.55;80.87
37778;BME280;23615;51.506;7.678;2023-06-04T02:58:26;100457.59;;;8.55;81.52
37778;BME280;23615;51.506;7.678;2023-06-04T03:00:52;100451.22;;;8.56;80.83
37778;BME280;23615;51.506;7.678;2023-06-04T03:03:18;100454.69;;;8.50;81.14
37778;BME280;23615;51.506;7.678;2023-06-04T03:05:43;100454.25;;;8.47;81.27
37778;BME280;23615;51.506;7.678;2023-06-04T03:08:08;100451.59;;;8.47;80.91
37778;BME280;23615;51.506;7.678;2023-06-04T03:10:34;100448.34;;;8.45;81.80
37778;BME280;23615;51.506;7.678;2023-06-04T03:12:59;100451.22;;;8.43;81.35
37778;BME280;23615;51.506;7.678;2023-06-04T03:15:24;100455.50;;;8.44;80.93
37778;BME280;23615;51.506;7.678;2023-06-04T03:17:50;100447.28;;;8.39;81.32
37778;BME280;23615;51.506;7.678;2023-06-04T03:20:16;100454.66;;;8.37;80.75
37778;BME280;23615;51.506;7.678;2023-06-04T03:22:41;100458.56;;;8.41;81.19
37778;BME280;23615;51.506;7.678;2023-06-04T03:25:07;100451.78;;;8.39;81.09
37778;BME280;23615;51.506;7.678;2023-06-04T03:27:33;100450.50;;;8.28;81.89
37778;BME280;23615;51.506;7.678;2023-06-04T03:29:58;100448.00;;;8.20;82.14
37778;BME280;23615;51.506;7.678;2023-06-04T03:32:23;100460.56;;;8.33;82.19
37778;BME280;23615;51.506;7.678;2023-06-04T03:34:48;100458.47;;;8.28;82.15
37778;BME280;23615;51.506;7.678;2023-06-04T03:37:14;100458.25;;;8.23;82.88
37778;BME280;23615;51.506;7.678;2023-06-04T03:39:39;100460.50;;;8.26;82.35
37778;BME280;23615;51.506;7.678;2023-06-04T03:42:04;100468.25;;;8.21;82.80
37778;BME280;23615;51.506;7.678;2023-06-04T03:44:30;100467.59;;;8.12;83.07
37778;BME280;23615;51.506;7.678;2023-06-04T03:46:55;100463.69;;;8.08;83.14
37778;BME280;23615;51.506;7.678;2023-06-04T03:49:21;100467.38;;;8.07;82.96
37778;BME280;23615;51.506;7.678;2023-06-04T03:51:47;100463.84;;;8.00;83.20
37778;BME280;23615;51.506;7.678;2023-06-04T03:54:14;100473.22;;;7.96;83.27
37778;BME280;23615;51.506;7.678;2023-06-04T03:56:45;100476.31;;;8.00;83.89
37778;BME280;23615;51.506;7.678;2023-06-04T03:59:11;100473.06;;;8.04;83.93
37778;BME280;23615;51.506;7.678;2023-06-04T04:01:36;100471.84;;;8.07;83.72
37778;BME280;23615;51.506;7.678;2023-06-04T04:04:02;100470.22;;;8.06;84.07
37778;BME280;23615;51.506;7.678;2023-06-04T04:06:27;100474.72;;;8.12;83.72
37778;BME280;23615;51.506;7.678;2023-06-04T04:08:53;100484.19;;;8.21;83.72
37778;BME280;23615;51.506;7.678;2023-06-04T04:11:18;100470.91;;;8.21;83.77
37778;BME280;23615;51.506;7.678;2023-06-04T04:13:45;100478.69;;;8.29;83.98
37778;BME280;23615;51.506;7.678;2023-06-04T04:16:10;100480.63;;;8.35;84.31
37778;BME280;23615;51.506;7.678;2023-06-04T04:18:36;100480.63;;;8.35;84.57
37778;BME280;23615;51.506;7.678;2023-06-04T04:21:03;100481.28;;;8.44;84.43
37778;BME280;23615;51.506;7.678;2023-06-04T04:23:29;100478.63;;;8.50;84.38
37778;BME280;23615;51.506;7.678;2023-06-04T04:25:54;100482.09;;;8.44;84.44
37778;BME280;23615;51.506;7.678;2023-06-04T04:28:22;100468.38;;;8.47;84.70
37778;BME280;23615;51.506;7.678;2023-06-04T04:30:47;100474.13;;;8.51;84.96
37778;BME280;23615;51.506;7.678;2023-06-04T04:33:14;100477.44;;;8.59;85.13
37778;BME280;23615;51.506;7.678;2023-06-04T04:35:41;100481.16;;;8.72;85.13
37778;BME280;23615;51.506;7.678;2023-06-04T04:38:07;100476.28;;;8.82;84.79
37778;BME280;23615;51.506;7.678;2023-06-04T04:40:33;100486.13;;;8.94;84.77
37778;BME280;23615;51.506;7.678;2023-06-04T04:42:58;100480.03;;;9.00;84.98
37778;BME280;23615;51.506;7.678;2023-06-04T04:45:23;100476.34;;;9.08;85.65
37778;BME280;23615;51.506;7.678;2023-06-04T04:47:49;100478.19;;;9.14;85.66
37778;BME280;23615;51.506;7.678;2023-06-04T04:50:16;100475.75;;;9.26;85.26
37778;BME280;23615;51.506;7.678;2023-06-04T04:52:41;100485.56;;;9.32;85.87
37778;BME280;23615;51.506;7.678;2023-06-04T04:55:07;100476.16;;;9.36;86.64
37778;BME280;23615;51.506;7.678;2023-06-04T04:57:32;100486.00;;;9.42;86.64
37778;BME280;23615;51.506;7.678;2023-06-04T04:59:58;100488.06;;;9.47;86.39
37778;BME280;23615;51.506;7.678;2023-06-04T05:02:23;100489.91;;;9.53;86.00
37778;BME280;23615;51.506;7.678;2023-06-04T05:04:48;100492.16;;;9.62;86.12
37778;BME280;23615;51.506;7.678;2023-06-04T05:07:13;100486.19;;;9.73;86.48
37778;BME280;23615;51.506;7.678;2023-06-04T05:09:40;100481.69;;;9.81;86.83
37778;BME280;23615;51.506;7.678;2023-06-04T05:12:05;100486.16;;;9.87;86.46
37778;BME280;23615;51.506;7.678;2023-06-04T05:14:32;100489.44;;;9.95;86.07
37778;BME280;23615;51.506;7.678;2023-06-04T05:16:57;100489.03;;;9.98;86.30
37778;BME280;23615;51.506;7.678;2023-06-04T05:19:22;100502.53;;;10.03;85.13
37778;BME280;23615;51.506;7.678;2023-06-04T05:21:49;100496.78;;;10.13;84.46
37778;BME280;23615;51.506;7.678;2023-06-04T05:24:14;100502.34;;;10.18;84.02
37778;BME280;23615;51.506;7.678;2023-06-04T05:26:40;100502.50;;;10.30;83.67
37778;BME280;23615;51.506;7.678;2023-06-04T05:29:05;100500.41;;;10.38;83.47
37778;BME280;23615;51.506;7.678;2023-06-04T05:31:31;100493.81;;;10.47;82.71
37778;BME280;23615;51.506;7.678;2023-06-04T05:34:00;100498.53;;;10.52;81.61
37778;BME280;23615;51.506;7.678;2023-06-04T05:36:29;100498.53;;;10.52;82.36
37778;BME280;23615;51.506;7.678;2023-06-04T05:38:55;100498.94;;;10.56;82.59
37778;BME280;23615;51.506;7.678;2023-06-04T05:41:23;100493.13;;;10.65;82.67
37778;BME280;23615;51.506;7.678;2023-06-04T05:43:49;100508.31;;;10.71;83.79
37778;BME280;23615;51.506;7.678;2023-06-04T05:46:14;100500.00;;;10.86;84.04
37778;BME280;23615;51.506;7.678;2023-06-04T05:48:40;100501.41;;;10.95;82.93
37778;BME280;23615;51.506;7.678;2023-06-04T05:51:05;100509.19;;;10.97;83.06
37778;BME280;23615;51.506;7.678;2023-06-04T05:53:30;100507.50;;;11.09;82.16
37778;BME280;23615;51.506;7.678;2023-06-04T05:55:56;100500.72;;;11.06;80.48
37778;BME280;23615;51.506;7.678;2023-06-04T05:58:21;100507.03;;;11.18;81.21
37778;BME280;23615;51.506;7.678;2023-06-04T06:00:46;100504.91;;;11.27;80.54
37778;BME280;23615;51.506;7.678;2023-06-04T06:03:13;100506.72;;;11.33;79.83
37778;BME280;23615;51.506;7.678;2023-06-04T06:05:41;100506.28;;;11.36;80.41
37778;BME280;23615;51.506;7.678;2023-06-04T06:08:06;100509.88;;;11.48;79.55
37778;BME280;23615;51.506;7.678;2023-06-04T06:10:32;100512.28;;;11.56;79.34
37778;BME280;23615;51.506;7.678;2023-06-04T06:12:57;100513.50;;;11.60;78.03
37778;BME280;23615;51.506;7.678;2023-06-04T06:15:22;100511.13;;;11.77;77.41
37778;BME280;23615;51.506;7.678;2023-06-04T06:17:48;100512.69;;;11.85;76.40
37778;BME280;23615;51.506;7.678;2023-06-04T06:20:14;100510.78;;;11.92;75.87
37778;BME280;23615;51.506;7.678;2023-06-04T06:22:42;100518.81;;;11.92;74.65
37778;BME280;23615;51.506;7.678;2023-06-04T06:25:08;100521.19;;;12.00;74.65
37778;BME280;23615;51.506;7.678;2023-06-04T06:27:33;100517.78;;;12.11;74.11
37778;BME280;23615;51.506;7.678;2023-06-04T06:29:58;100525.91;;;12.23;73.43
37778;BME280;23615;51.506;7.678;2023-06-04T06:32:24;100520.72;;;12.28;73.04
37778;BME280;23615;51.506;7.678;2023-06-04T06:34:50;100524.88;;;12.24;70.22
37778;BME280;23615;51.506;7.678;2023-06-04T06:37:15;100530.00;;;12.25;71.09
37778;BME280;23615;51.506;7.678;2023-06-04T06:39:40;100532.38;;;12.33;71.49
37778;BME280;23615;51.506;7.678;2023-06-04T06:42:06;100538.41;;;12.47;72.03
37778;BME280;23615;51.506;7.678;2023-06-04T06:44:31;100539.97;;;12.55;71.27
37778;BME280;23615;51.506;7.678;2023-06-04T06:46:56;100531.63;;;12.63;70.92
37778;BME280;23615;51.506;7.678;2023-06-04T06:49:21;100536.50;;;12.66;68.88
37778;BME280;23615;51.506;7.678;2023-06-04T06:51:47;100536.47;;;12.72;67.85
37778;BME280;23615;51.506;7.678;2023-06-04T06:54:14;100537.41;;;12.78;67.59
37778;BME280;23615;51.506;7.678;2023-06-04T06:56:41;100542.91;;;12.83;67.65
37778;BME280;23615;51.506;7.678;2023-06-04T06:59:06;100543.19;;;12.93;67.93
37778;BME280;23615;51.506;7.678;2023-06-04T07:01:31;100545.56;;;13.01;68.37
37778;BME280;23615;51.506;7.678;2023-06-04T07:03:58;100540.47;;;13.11;67.97
37778;BME280;23615;51.506;7.678;2023-06-04T07:06:23;100538.19;;;13.15;67.60
37778;BME280;23615;51.506;7.678;2023-06-04T07:08:49;100534.50;;;13.28;67.79
37778;BME280;23615;51.506;7.678;2023-06-04T07:11:14;100539.88;;;13.39;65.91
37778;BME280;23615;51.506;7.678;2023-06-04T07:13:42;100532.59;;;13.46;66.89
37778;BME280;23615;51.506;7.678;2023-06-04T07:16:07;100536.91;;;13.59;67.76
37778;BME280;23615;51.506;7.678;2023-06-04T07:18:33;100538.78;;;13.70;68.57
37778;BME280;23615;51.506;7.678;2023-06-04T07:20:58;100543.25;;;13.88;68.76
37778;BME280;23615;51.506;7.678;2023-06-04T07:23:24;100535.56;;;13.92;68.06
37778;BME280;23615;51.506;7.678;2023-06-04T07:25:49;100542.44;;;14.11;67.79
37778;BME280;23615;51.506;7.678;2023-06-04T07:28:14;100544.28;;;14.22;67.29
37778;BME280;23615;51.506;7.678;2023-06-04T07:30:40;100545.22;;;14.28;67.13
37778;BME280;23615;51.506;7.678;2023-06-04T07:33:05;100546.16;;;14.33;68.01
37778;BME280;23615;51.506;7.678;2023-06-04T07:35:31;100542.09;;;14.42;67.09
37778;BME280;23615;51.506;7.678;2023-06-04T07:37:56;100541.72;;;14.50;66.47
37778;BME280;23615;51.506;7.678;2023-06-04T07:40:22;100548.72;;;14.63;66.33
37778;BME280;23615;51.506;7.678;2023-06-04T07:42:47;100533.63;;;14.74;65.29
37778;BME280;23615;51.506;7.678;2023-06-04T07:45:13;100535.09;;;14.81;65.66
37778;BME280;23615;51.506;7.678;2023-06-04T07:47:38;100542.78;;;14.89;64.82
37778;BME280;23615;51.506;7.678;2023-06-04T07:50:05;100541.00;;;14.95;64.18
37778;BME280;23615;51.506;7.678;2023-06-04T07:52:31;100539.00;;;15.02;65.06
37778;BME280;23615;51.506;7.678;2023-06-04T07:54:56;100544.09;;;15.15;63.80
37778;BME280;23615;51.506;7.678;2023-06-04T07:57:21;100550.94;;;15.23;64.39
37778;BME280;23615;51.506;7.678;2023-06-04T07:59:47;100538.75;;;15.32;64.05
37778;BME280;23615;51.506;7.678;2023-06-04T08:02:12;100552.78;;;15.51;63.73
37778;BME280;23615;51.506;7.678;2023-06-04T08:04:39;100548.09;;;15.58;65.40
37778;BME280;23615;51.506;7.678;2023-06-04T08:07:05;100548.38;;;15.73;64.88
37778;BME280;23615;51.506;7.678;2023-06-04T08:09:31;100550.72;;;15.86;64.52
37778;BME280;23615;51.506;7.678;2023-06-04T08:11:56;100555.69;;;15.94;63.12
37778;BME280;23615;51.506;7.678;2023-06-04T08:14:21;100548.75;;;15.98;62.99
37778;BME280;23615;51.506;7.678;2023-06-04T08:16:48;100553.22;;;16.09;62.18
37778;BME280;23615;51.506;7.678;2023-06-04T08:19:13;100551.50;;;16.20;61.00
37778;BME280;23615;51.506;7.678;2023-06-04T08:21:39;100540.81;;;16.25;61.19
37778;BME280;23615;51.506;7.678;2023-06-04T08:24:05;100537.34;;;16.30;62.98
37778;BME280;23615;51.506;7.678;2023-06-04T08:26:31;100541.38;;;16.49;62.22
37778;BME280;23615;51.506;7.678;2023-06-04T08:28:57;100537.75;;;16.60;62.31
37778;BME280;23615;51.506;7.678;2023-06-04T08:31:22;100542.97;;;16.67;62.13
37778;BME280;23615;51.506;7.678;2023-06-04T08:33:48;100547.06;;;16.69;60.39
37778;BME280;23615;51.506;7.678;2023-06-04T08:36:14;100546.56;;;16.72;59.49
37778;BME280;23615;51.506;7.678;2023-06-04T08:38:41;100554.59;;;16.89;60.54
37778;BME280;23615;51.506;7.678;2023-06-04T08:41:13;100549.88;;;17.01;61.59
37778;BME280;23615;51.506;7.678;2023-06-04T08:43:40;100553.31;;;16.97;61.64
37778;BME280;23615;51.506;7.678;2023-06-04T08:46:08;100550.03;;;17.16;61.73
37778;BME280;23615;51.506;7.678;2023-06-04T08:48:34;100548.81;;;17.29;62.70
37778;BME280;23615;51.506;7.678;2023-06-04T08:51:02;100555.06;;;17.35;61.75
37778;BME280;23615;51.506;7.678;2023-06-04T08:53:27;100553.31;;;17.50;62.04
37778;BME280;23615;51.506;7.678;2023-06-04T08:55:53;100550.44;;;17.57;60.99
37778;BME280;23615;51.506;7.678;2023-06-04T08:58:19;100550.50;;;17.62;59.76
37778;BME280;23615;51.506;7.678;2023-06-04T09:00:45;100549.47;;;17.68;61.51
37778;BME280;23615;51.506;7.678;2023-06-04T09:03:10;100542.28;;;17.79;61.25
37778;BME280;23615;51.506;7.678;2023-06-04T09:05:38;100549.41;;;17.95;59.36
37778;BME280;23615;51.506;7.678;2023-06-04T09:08:07;100554.94;;;18.15;59.00
37778;BME280;23615;51.506;7.678;2023-06-04T09:10:34;100553.13;;;18.26;59.49
37778;BME280;23615;51.506;7.678;2023-06-04T09:13:02;100549.63;;;18.30;60.77
37778;BME280;23615;51.506;7.678;2023-06-04T09:15:28;100549.44;;;18.42;58.42
37778;BME280;23615;51.506;7.678;2023-06-04T09:17:53;100552.69;;;18.44;59.84
37778;BME280;23615;51.506;7.678;2023-06-04T09:20:22;100544.91;;;18.53;60.23
37778;BME280;23615;51.506;7.678;2023-06-04T09:22:48;100552.78;;;18.59;58.26
37778;BME280;23615;51.506;7.678;2023-06-04T09:25:24;100550.16;;;18.75;57.82
37778;BME280;23615;51.506;7.678;2023-06-04T09:27:51;100556.97;;;18.82;56.45
37778;BME280;23615;51.506;7.678;2023-06-04T09:30:17;100555.88;;;18.88;56.10
37778;BME280;23615;51.506;7.678;2023-06-04T09:32:42;100556.22;;;19.02;55.30
37778;BME280;23615;51.506;7.678;2023-06-04T09:35:09;100550.53;;;19.09;55.89
37778;BME280;23615;51.506;7.678;2023-06-04T09:37:35;100553.00;;;19.10;54.96
37778;BME280;23615;51.506;7.678;2023-06-04T09:40:01;100550.03;;;19.22;54.71
37778;BME280;23615;51.506;7.678;2023-06-04T09:42:28;100550.88;;;19.37;54.58
37778;BME280;23615;51.506;7.678;2023-06-04T09:44:54;100546.56;;;19.47;54.43
37778;BME280;23615;51.506;7.678;2023-06-04T09:47:19;100544.97;;;19.51;53.57
37778;BME280;23615;51.506;7.678;2023-06-04T09:49:46;100559.34;;;19.66;54.21
37778;BME280;23615;51.506;7.678;2023-06-04T09:52:12;100540.34;;;19.87;54.55
37778;BME280;23615;51.506;7.678;2023-06-04T09:54:39;100546.84;;;19.96;52.55
37778;BME280;23615;51.506;7.678;2023-06-04T09:57:17;100545.22;;;20.05;52.74
37778;BME280;23615;51.506;7.678;2023-06-04T09:59:49;100544.38;;;20.25;53.87
37778;BME280;23615;51.506;7.678;2023-06-04T10:02:19;100549.50;;;20.41;53.81
37778;BME280;23615;51.506;7.678;2023-06-04T10:04:49;100548.38;;;20.52;54.19
37778;BME280;23615;51.506;7.678;2023-06-04T10:07:14;100542.66;;;20.64;53.27
37778;BME280;23615;51.506;7.678;2023-06-04T10:09:43;100542.84;;;20.78;52.54
37778;BME280;23615;51.506;7.678;2023-06-04T10:12:11;100552.31;;;20.85;51.51
37778;BME280;23615;51.506;7.678;2023-06-04T10:14:41;100531.41;;;20.86;50.70
37778;BME280;23615;51.506;7.678;2023-06-04T10:17:08;100538.28;;;20.68;51.20
37778;BME280;23615;51.506;7.678;2023-06-04T10:19:37;100532.28;;;20.81;50.79
37778;BME280;23615;51.506;7.678;2023-06-04T10:22:03;100527.66;;;20.82;51.74
37778;BME280;23615;51.506;7.678;2023-06-04T10:24:30;100529.25;;;20.93;50.95
37778;BME280;23615;51.506;7.678;2023-06-04T10:26:57;100533.00;;;20.97;51.16
37778;BME280;23615;51.506;7.678;2023-06-04T10:29:24;100526.97;;;21.05;51.52
37778;BME280;23615;51.506;7.678;2023-06-04T10:31:54;100517.16;;;21.19;50.16
37778;BME280;23615;51.506;7.678;2023-06-04T10:34:19;100532.56;;;21.29;50.33
37778;BME280;23615;51.506;7.678;2023-06-04T10:36:45;100519.22;;;21.38;50.65
37778;BME280;23615;51.506;7.678;2023-06-04T10:39:11;100521.88;;;21.43;50.11
37778;BME280;23615;51.506;7.678;2023-06-04T10:41:37;100530.28;;;21.46;49.18
37778;BME280;23615;51.506;7.678;2023-06-04T10:44:02;100520.38;;;21.60;48.59
37778;BME280;23615;51.506;7.678;2023-06-04T10:46:38;100526.47;;;21.76;48.50
37778;BME280;23615;51.506;7.678;2023-06-04T10:49:05;100521.47;;;21.88;49.50
37778;BME280;23615;51.506;7.678;2023-06-04T10:51:32;100526.28;;;21.96;48.76
37778;BME280;23615;51.506;7.678;2023-06-04T10:53:59;100522.00;;;21.90;48.91
37778;BME280;23615;51.506;7.678;2023-06-04T10:56:29;100522.16;;;22.04;49.22
37778;BME280;23615;51.506;7.678;2023-06-04T10:58:57;100522.34;;;22.13;47.94
37778;BME280;23615;51.506;7.678;2023-06-04T11:01:29;100521.50;;;22.17;48.06
37778;BME280;23615;51.506;7.678;2023-06-04T11:03:57;100521.16;;;22.24;48.28
37778;BME280;23615;51.506;7.678;2023-06-04T11:06:22;100516.13;;;22.36;49.24
37778;BME280;23615;51.506;7.678;2023-06-04T11:08:48;100517.13;;;22.45;48.47
37778;BME280;23615;51.506;7.678;2023-06-04T11:11:15;100511.91;;;22.49;48.82
37778;BME280;23615;51.506;7.678;2023-06-04T11:13:41;100514.63;;;22.49;48.80
37778;BME280;23615;51.506;7.678;2023-06-04T11:16:20;100517.53;;;22.57;47.80
37778;BME280;23615;51.506;7.678;2023-06-04T11:18:57;100513.63;;;22.63;47.33
37778;BME280;23615;51.506;7.678;2023-06-04T11:21:24;100511.88;;;22.72;48.31
37778;BME280;23615;51.506;7.678;2023-06-04T11:23:55;100510.16;;;22.58;48.75
37778;BME280;23615;51.506;7.678;2023-06-04T11:26:20;100509.19;;;22.67;47.35
37778;BME280;23615;51.506;7.678;2023-06-04T11:28:49;100504.28;;;22.74;47.42
37778;BME280;23615;51.506;7.678;2023-06-04T11:31:14;100502.72;;;22.87;47.94
37778;BME280;23615;51.506;7.678;2023-06-04T11:33:44;100512.22;;;22.90;48.35
37778;BME280;23615;51.506;7.678;2023-06-04T11:36:10;100511.84;;;22.96;46.94
37778;BME280;23615;51.506;7.678;2023-06-04T11:38:35;100508.03;;;22.97;46.75
37778;BME280;23615;51.506;7.678;2023-06-04T11:41:02;100505.00;;;22.99;46.22
37778;BME280;23615;51.506;7.678;2023-06-04T11:43:27;100503.53;;;23.25;48.92
37778;BME280;23615;51.506;7.678;2023-06-04T11:45:53;100498.03;;;23.30;48.66
37778;BME280;23615;51.506;7.678;2023-06-04T11:48:19;100501.75;;;23.34;47.42
37778;BME280;23615;51.506;7.678;2023-06-04T11:50:45;100501.75;;;23.53;48.57
37778;BME280;23615;51.506;7.678;2023-06-04T11:53:11;100499.84;;;23.54;47.07
37778;BME280;23615;51.506;7.678;2023-06-04T11:55:38;100501.28;;;23.65;46.92
37778;BME280;23615;51.506;7.678;2023-06-04T11:58:03;100499.03;;;23.34;45.98
37778;BME280;23615;51.506;7.678;2023-06-04T12:00:29;100500.06;;;23.38;45.19
37778;BME280;23615;51.506;7.678;2023-06-04T12:02:55;100500.13;;;23.33;45.74
37778;BME280;23615;51.506;7.678;2023-06-04T12:05:39;100496.59;;;23.52;46.71
37778;BME280;23615;51.506;7.678;2023-06-04T12:08:06;100495.44;;;23.71;46.54
37778;BME280;23615;51.506;7.678;2023-06-04T12:10:41;100495.50;;;23.53;46.97
37778;BME280;23615;51.506;7.678;2023-06-04T12:13:07;100488.97;;;23.67;47.00
37778;BME280;23615;51.506;7.678;2023-06-04T12:15:32;100486.25;;;23.67;44.98
37778;BME280;23615;51.506;7.678;2023-06-04T12:17:58;100483.22;;;23.69;45.13
37778;BME280;23615;51.506;7.678;2023-06-04T12:20:40;100480.59;;;23.64;44.38
37778;BME280;23615;51.506;7.678;2023-06-04T12:23:06;100479.91;;;23.72;46.16
37778;BME280;23615;51.506;7.678;2023-06-04T12:25:33;100485.38;;;23.85;46.53
37778;BME280;23615;51.506;7.678;2023-06-04T12:27:58;100479.91;;;23.72;44.56
37778;BME280;23615;51.506;7.678;2023-06-04T12:30:35;100476.91;;;23.87;46.10
37778;BME280;23615;51.506;7.678;2023-06-04T12:33:00;100484.88;;;23.83;44.45
37778;BME280;23615;51.506;7.678;2023-06-04T12:35:25;100476.00;;;23.92;44.07
37778;BME280;23615;51.506;7.678;2023-06-04T12:37:51;100474.91;;;23.93;44.70
37778;BME280;23615;51.506;7.678;2023-06-04T12:40:16;100472.69;;;24.08;43.69
37778;BME280;23615;51.506;7.678;2023-06-04T12:42:41;100475.22;;;24.18;43.53
37778;BME280;23615;51.506;7.678;2023-06-04T12:45:09;100471.50;;;24.28;44.45
37778;BME280;23615;51.506;7.678;2023-06-04T12:47:34;100478.69;;;24.24;43.25
37778;BME280;23615;51.506;7.678;2023-06-04T12:50:00;100482.72;;;24.27;43.19
37778;BME280;23615;51.506;7.678;2023-06-04T12:52:25;100478.94;;;23.95;44.21